Time;durP1;ratioP1;P1;durP2;ratioP2;P2;SDS_P1;SDS_P2;PMS_P1;PMS_P2;Temp;Humidity;BMP_temperature;BMP_pressure;BME280_temperature;BME280_humidity;BME280_pressure;Samples;Min_cycle;Max_cycle;Signal;HPM_P1;HPM_P2
2022/09/05 00:02:36;;;;;;;12.57;8.57;;;;;;;17.10;100.00;63762.88;5085441;28;20228;-78
2022/09/05 00:05:33;;;;;;;8.63;7.82;;;;;;;17.11;100.00;63767.00;5083879;28;20199;-78
2022/09/05 00:08:05;;;;;;;8.32;7.53;;;;;;;17.19;100.00;63775.31;5092308;28;20205;-79
2022/09/05 00:10:41;;;;;;;8.90;8.05;;;;;;;17.08;100.00;63766.44;5104770;28;20255;-78
2022/09/05 00:13:15;;;;;;;9.32;8.43;;;;;;;17.11;100.00;63769.56;5105127;28;20383;-78
2022/09/05 00:15:53;;;;;;;9.93;9.02;;;;;;;17.05;100.00;63758.19;5105663;28;20206;-77
2022/09/05 00:18:44;;;;;;;9.90;9.02;;;;;;;17.03;100.00;63760.72;5086818;28;20200;-78
2022/09/05 00:21:23;;;;;;;9.70;8.70;;;;;;;17.05;100.00;63760.25;5086210;28;20291;-78
2022/09/05 00:24:04;;;;;;;10.55;9.55;;;;;;;17.02;100.00;63755.06;5100100;28;20238;-78
2022/09/05 00:26:43;;;;;;;10.40;9.40;;;;;;;17.03;100.00;63763.31;5107296;28;20233;-77
2022/09/05 00:29:24;;;;;;;11.27;10.10;;;;;;;17.09;100.00;63772.63;5104781;28;20191;-77
2022/09/05 00:32:01;;;;;;;11.15;10.07;;;;;;;17.06;100.00;63758.69;5105046;28;20219;-78
2022/09/05 00:34:52;;;;;;;12.18;10.85;;;;;;;16.95;100.00;63755.50;5104582;28;20191;-77
2022/09/05 00:37:33;;;;;;;11.88;10.77;;;;;;;16.98;100.00;63750.88;5109531;28;20286;-79
2022/09/05 00:40:25;;;;;;;11.20;10.10;;;;;;;17.03;100.00;63758.66;5109545;28;20267;-77
2022/09/05 00:42:56;;;;;;;12.48;11.27;;;;;;;17.03;100.00;63758.16;5110377;28;20523;-78
2022/09/05 00:45:30;;;;;;;17.05;11.20;;;;;;;17.02;100.00;63760.19;5108840;28;20215;-77
2022/09/05 00:48:05;;;;;;;13.43;12.02;;;;;;;16.93;100.00;63745.69;5099530;28;20188;-77
2022/09/05 00:50:41;;;;;;;13.68;11.43;;;;;;;16.98;100.00;63752.94;5087971;28;20225;-78
2022/09/05 00:53:17;;;;;;;13.43;11.43;;;;;;;17.02;100.00;63760.19;5089410;28;20200;-78
2022/09/05 00:55:55;;;;;;;12.57;11.38;;;;;;;16.98;100.00;63756.03;5088204;28;20195;-78
2022/09/05 00:58:47;;;;;;;14.13;12.57;;;;;;;17.00;100.00;63755.53;5089612;28;20223;-78
2022/09/05 01:01:31;;;;;;;13.90;12.50;;;;;;;16.97;100.00;63754.47;5087672;28;20223;-77
2022/09/05 01:04:26;;;;;;;13.10;11.85;;;;;;;16.95;100.00;63752.38;5086486;28;20298;-78
2022/09/05 01:07:10;;;;;;;13.38;12.15;;;;;;;16.95;100.00;63747.78;5095829;28;20273;-78
2022/09/05 01:09:55;;;;;;;13.52;12.25;;;;;;;16.92;100.00;63749.78;5108167;28;20203;-78
2022/09/05 01:12:47;;;;;;;12.63;11.30;;;;;;;16.84;100.00;63740.94;5109970;28;20241;-79
2022/09/05 01:15:22;;;;;;;13.70;12.30;;;;;;;16.74;100.00;63727.97;5108458;28;20196;-78
2022/09/05 01:18:05;;;;;;;13.70;11.95;;;;;;;16.79;100.00;63733.19;5100767;28;20220;-78
2022/09/05 01:20:48;;;;;;;12.82;11.63;;;;;;;16.79;100.00;63733.19;5090468;28;20412;-78
2022/09/05 01:23:49;;;;;;;15.05;12.35;;;;;;;16.83;100.00;63740.44;5088489;28;20283;-77
2022/09/05 01:26:37;;;;;;;13.48;12.30;;;;;;;16.71;100.00;63727.94;5089570;28;20223;-77
2022/09/05 01:29:14;;;;;;;12.80;11.60;;;;;;;16.61;100.00;63714.44;5087674;28;20222;-78
2022/09/05 01:31:51;;;;;;;14.50;11.48;;;;;;;16.64;100.00;63720.13;5088101;28;20226;-78
2022/09/05 01:34:26;;;;;;;12.70;11.38;;;;;;;16.51;100.00;63709.72;5088256;28;20184;-78
2022/09/05 01:37:03;;;;;;;13.00;11.70;;;;;;;16.59;100.00;63714.94;5088631;28;20376;-77
2022/09/05 01:39:41;;;;;;;13.80;12.48;;;;;;;16.53;100.00;63708.69;5092015;28;20460;-78
2022/09/05 01:42:27;;;;;;;11.75;10.73;;;;;;;16.57;100.00;63710.28;5108296;28;20256;-78
2022/09/05 01:45:03;;;;;;;12.43;11.32;;;;;;;16.63;100.00;63716.53;5110023;28;20370;-78
2022/09/05 01:47:43;;;;;;;13.13;11.82;;;;;;;16.65;100.00;63721.19;5106753;28;20215;-77
2022/09/05 01:50:24;;;;;;;14.20;12.38;;;;;;;16.69;100.00;63725.84;5107284;28;20267;-78
2022/09/05 01:53:08;;;;;;;12.52;11.23;;;;;;;16.53;100.00;63704.06;5107695;28;20244;-78
2022/09/05 01:55:54;;;;;;;13.77;12.35;;;;;;;16.44;100.00;63699.31;5107971;28;20366;-77
2022/09/05 01:58:32;;;;;;;13.00;11.57;;;;;;;16.41;100.00;63696.19;5108137;28;20214;-77
2022/09/05 02:01:10;;;;;;;12.77;11.48;;;;;;;16.31;100.00;63683.72;5108734;28;20257;-78
2022/09/05 02:03:44;;;;;;;12.23;11.07;;;;;;;16.32;100.00;63684.25;5108075;28;20219;-77
2022/09/05 02:06:35;;;;;;;10.95;9.98;;;;;;;16.22;100.00;63671.81;5107033;28;20232;-77
2022/09/05 02:09:14;;;;;;;14.55;10.50;;;;;;;16.21;100.00;63678.47;5087281;28;20192;-78
2022/09/05 02:11:45;;;;;;;13.85;11.38;;;;;;;16.33;100.00;63685.81;5087975;28;20216;-78
2022/09/05 02:14:30;;;;;;;12.00;11.00;;;;;;;16.18;100.00;63675.88;5090099;28;20503;-77
2022/09/05 02:17:12;;;;;;;11.98;10.88;;;;;;;16.15;100.00;63667.59;5098372;28;20220;-78
2022/09/05 02:19:46;;;;;;;13.13;11.95;;;;;;;16.30;100.00;63684.75;5088466;28;20184;-77
2022/09/05 02:22:18;;;;;;;12.77;11.40;;;;;;;16.19;100.00;63671.25;5086197;28;20257;-78
2022/09/05 02:24:53;;;;;;;12.52;11.32;;;;;;;16.18;100.00;63670.75;5097029;28;20204;-78
2022/09/05 02:27:27;;;;;;;11.77;10.77;;;;;;;16.28;100.00;63682.66;5106745;28;20261;-77
2022/09/05 02:30:06;;;;;;;11.60;10.60;;;;;;;16.41;100.00;63698.75;5106636;28;20220;-77
2022/09/05 02:32:48;;;;;;;11.45;10.35;;;;;;;16.48;100.00;63700.94;5107641;28;20219;-78
2022/09/05 02:35:22;;;;;;;10.82;9.75;;;;;;;16.37;100.00;63689.97;5108174;28;20196;-78
2022/09/05 02:37:54;;;;;;;9.77;8.88;;;;;;;16.50;100.00;63705.56;5105374;28;20222;-78
2022/09/05 02:40:28;;;;;;;10.15;9.15;;;;;;;16.52;100.00;63705.59;5106782;28;20773;-78
2022/09/05 02:43:02;;;;;;;9.43;8.63;;;;;;;16.56;100.00;63707.19;5107240;28;20252;-78
2022/09/05 02:45:44;;;;;;;10.05;8.25;;;;;;;16.59;100.00;63715.44;5105981;28;20756;-77
2022/09/05 02:48:23;;;;;;;8.80;8.00;;;;;;;16.56;100.00;63709.75;5106713;28;20211;-77
2022/09/05 02:51:01;;;;;;;11.18;8.82;;;;;;;16.39;100.00;63688.97;5105781;28;20252;-77
2022/09/05 02:53:29;;;;;;;10.23;8.50;;;;;;;16.49;100.00;63704.53;5108116;28;20237;-78
2022/09/05 02:56:21;;;;;;;8.55;7.80;;;;;;;16.54;100.00;63715.41;5106293;28;20527;-77
2022/09/05 02:58:59;;;;;;;8.95;8.10;;;;;;;16.61;100.00;63722.16;5106813;28;20203;-78
2022/09/05 03:01:44;;;;;;;11.82;8.30;;;;;;;16.63;100.00;63713.94;5105618;28;20215;-78
2022/09/05 03:04:26;;;;;;;10.32;8.55;;;;;;;16.68;100.00;63722.25;5106231;28;20215;-77
2022/09/05 03:07:06;;;;;;;10.25;8.95;;;;;;;16.72;100.00;63731.03;5102771;28;20227;-78
2022/09/05 03:09:47;;;;;;;9.82;8.82;;;;;;;16.66;100.00;63717.06;5087682;28;20191;-78
2022/09/05 03:12:42;;;;;;;11.55;8.95;;;;;;;16.65;100.00;63721.69;5100827;28;20237;-78
2022/09/05 03:15:54;;;;;;;9.23;8.52;;;;;;;16.60;100.00;63716.50;5106266;28;20510;-78
2022/09/05 03:18:57;;;;;;;9.30;8.40;;;;;;;16.65;100.00;63724.25;5077194;28;20282;-77
2022/09/05 03:22:12;;;;;;;9.98;9.07;;;;;;;16.67;100.00;63721.19;5105409;28;20264;-78
2022/09/05 03:25:20;;;;;;;10.35;9.35;;;;;;;16.64;100.00;63718.09;5104748;28;20239;-79
2022/09/05 03:28:23;;;;;;;9.52;8.70;;;;;;;16.63;100.00;63722.19;5058695;28;20236;-78
2022/09/05 03:31:09;;;;;;;9.63;8.70;;;;;;;16.65;100.00;63721.69;5097810;28;20206;-77
2022/09/05 03:34:09;;;;;;;9.32;8.60;;;;;;;16.70;100.00;63728.94;5084915;28;20191;-78
2022/09/05 03:37:11;;;;;;;12.70;8.90;;;;;;;16.59;100.00;63707.75;5085417;28;20266;-76
2022/09/05 03:40:11;;;;;;;7.75;7.15;;;;;;;16.25;100.00;63682.09;5099521;28;20236;-78
2022/09/05 03:42:57;;;;;;;7.25;6.75;;;;;;;16.13;100.00;63665.00;5105062;28;20260;-78
2022/09/05 03:45:41;;;;;;;10.02;9.02;;;;;;;16.00;100.00;63654.56;5107193;28;20485;-77
2022/09/05 03:48:27;;;;;;;9.75;8.77;;;;;;;15.99;100.00;63653.03;5106107;28;20187;-78
2022/09/05 03:51:07;;;;;;;8.82;8.13;;;;;;;16.06;100.00;63657.72;5105706;28;20430;-78
2022/09/05 03:53:53;;;;;;;8.80;8.00;;;;;;;16.11;100.00;63662.94;5105519;28;20191;-77
2022/09/05 03:56:51;;;;;;;9.75;8.95;;;;;;;16.02;100.00;63654.09;5105143;28;20258;-77
2022/09/05 03:59:46;;;;;;;10.57;9.63;;;;;;;16.05;100.00;63657.22;5104796;28;20199;-76
2022/09/05 04:02:18;;;;;;;10.85;9.75;;;;;;;16.13;100.00;63662.44;5105100;28;20215;-78
2022/09/05 04:04:54;;;;;;;10.80;9.82;;;;;;;16.18;100.00;63670.22;5108472;28;20227;-78
2022/09/05 04:07:26;;;;;;;10.20;9.13;;;;;;;16.14;100.00;63669.13;5104836;28;20277;-77
2022/09/05 04:10:01;;;;;;;12.02;10.73;;;;;;;16.17;100.00;63669.69;5106104;28;20264;-77
2022/09/05 04:12:34;;;;;;;10.95;9.85;;;;;;;16.24;100.00;63675.94;5104375;28;20286;-78
2022/09/05 04:15:06;;;;;;;11.57;10.48;;;;;;;16.22;100.00;63679.00;5104507;28;20203;-78
2022/09/05 04:17:43;;;;;;;10.75;9.70;;;;;;;16.15;100.00;63667.09;5104855;28;20272;-77
2022/09/05 04:20:14;;;;;;;11.45;10.25;;;;;;;16.11;100.00;63660.38;5109216;28;20389;-77
2022/09/05 04:23:10;;;;;;;11.55;10.35;;;;;;;16.15;100.00;63667.09;5105337;28;20467;-77
2022/09/05 04:25:54;;;;;;;12.00;10.05;;;;;;;16.20;100.00;63677.94;5105524;28;20217;-78
2022/09/05 04:28:35;;;;;;;13.98;10.73;;;;;;;16.35;100.00;63690.47;5106183;28;20195;-77
2022/09/05 04:31:11;;;;;;;10.93;9.95;;;;;;;16.33;100.00;63687.84;5105105;28;20237;-78
2022/09/05 04:33:47;;;;;;;14.15;10.05;;;;;;;16.37;100.00;63694.59;5105848;28;20256;-79
2022/09/05 04:36:20;;;;;;;13.18;10.95;;;;;;;16.40;100.00;63693.09;5105627;28;20215;-78
2022/09/05 04:39:08;;;;;;;10.65;9.57;;;;;;;16.50;100.00;63700.44;5106105;28;20191;-78
2022/09/05 04:41:40;;;;;;;12.63;9.13;;;;;;;16.66;100.00;63724.78;5105693;28;20219;-78
2022/09/05 04:44:13;;;;;;;10.93;9.82;;;;;;;16.69;100.00;63722.75;5105116;28;20273;-78
2022/09/05 04:46:47;;;;;;;10.98;9.80;;;;;;;16.67;100.00;63718.13;5088342;28;20223;-77
2022/09/05 04:49:18;;;;;;;10.32;9.40;;;;;;;16.73;100.00;63730.03;5105358;28;20397;-78
2022/09/05 04:52:10;;;;;;;10.73;9.65;;;;;;;16.97;100.00;63755.00;5094502;28;20240;-77
2022/09/05 04:54:43;;;;;;;10.27;9.38;;;;;;;16.98;100.00;63750.38;5085222;28;20203;-78
2022/09/05 04:57:20;;;;;;;10.40;9.40;;;;;;;17.12;100.00;63767.50;5086348;28;20529;-79
2022/09/05 04:59:53;;;;;;;10.60;9.50;;;;;;;17.22;100.00;63777.94;5102329;28;20207;-78
2022/09/05 05:02:25;;;;;;;9.32;8.52;;;;;;;17.20;100.00;63775.84;5103349;28;20216;-78
2022/09/05 05:05:00;;;;;;;10.50;9.50;;;;;;;17.21;100.00;63774.84;5084723;28;20235;-77
2022/09/05 05:07:39;;;;;;;9.65;8.90;;;;;;;17.52;100.00;63811.22;5096906;28;20214;-78
2022/09/05 05:10:09;;;;;;;9.25;8.45;;;;;;;17.65;100.00;63830.44;5103493;28;20278;-78
2022/09/05 05:12:52;;;;;;;9.20;7.68;;;;;;;17.57;100.00;63819.53;5088360;28;20279;-78
2022/09/05 05:15:23;;;;;;;8.40;7.60;;;;;;;17.41;100.00;63802.88;5104068;28;20203;-78
2022/09/05 05:18:03;;;;;;;9.40;6.93;;;;;;;17.43;100.00;63796.69;5107118;28;20207;-79
2022/09/05 05:20:35;;;;;;;7.80;7.10;;;;;;;17.57;100.00;63813.88;5111014;28;20199;-78
2022/09/05 05:23:07;;;;;;;9.43;6.95;;;;;;;17.52;100.00;63809.19;5115486;28;20183;-78
2022/09/05 05:25:47;;;;;;;7.93;7.22;;;;;;;17.61;100.00;63815.44;5112602;28;20231;-78
2022/09/05 05:28:24;;;;;;;7.95;6.80;;;;;;;17.59;100.00;63813.38;5108229;28;20184;-79
2022/09/05 05:30:52;;;;;;;8.32;7.35;;;;;;;17.54;100.00;63811.25;5108712;28;20226;-78
2022/09/05 05:33:26;;;;;;;7.18;6.60;;;;;;;17.49;100.00;63808.63;5107923;28;20202;-77
2022/09/05 05:35:56;;;;;;;8.43;7.57;;;;;;;17.65;100.00;63824.78;5109030;28;20218;-77
2022/09/05 05:38:31;;;;;;;7.25;6.65;;;;;;;17.77;100.00;63839.84;5109052;28;20397;-78
2022/09/05 05:41:09;;;;;;;7.25;6.70;;;;;;;17.93;100.00;63853.94;5109202;28;20214;-78
2022/09/05 05:43:41;;;;;;;8.27;7.60;;;;;;;18.08;100.00;63867.50;5108769;28;20237;-77
2022/09/05 05:46:11;;;;;;;7.70;6.93;;;;;;;18.15;100.00;63879.44;5109248;28;20214;-78
2022/09/05 05:48:40;;;;;;;7.60;6.93;;;;;;;18.12;100.00;63876.31;5088656;28;20259;-78
2022/09/05 05:51:41;;;;;;;10.00;8.30;;;;;;;18.31;100.00;63893.50;5090476;28;20223;-78
2022/09/05 05:54:20;;;;;;;7.78;7.18;;;;;;;18.46;100.00;63900.91;5087874;28;20430;-78
2022/09/05 05:57:05;;;;;;;6.90;6.38;;;;;;;18.47;100.00;63909.69;5108677;28;20253;-78
2022/09/05 05:59:57;;;;;;;6.82;6.32;;;;;;;18.52;100.00;63917.50;5107873;28;20194;-77
2022/09/05 06:03:01;;;;;;;7.72;7.07;;;;;;;18.42;100.00;63905.00;5109849;28;20425;-78
2022/09/05 06:05:43;;;;;;;8.00;6.15;;;;;;;18.45;100.00;63908.13;5106587;28;20223;-79
2022/09/05 06:08:32;;;;;;;6.13;5.63;;;;;;;18.45;100.00;63910.69;5105888;28;20188;-79
2022/09/05 06:11:23;;;;;;;6.80;6.30;;;;;;;18.63;100.00;63929.47;5109157;28;20229;-80
2022/09/05 06:14:36;;;;;;;5.47;5.10;;;;;;;18.72;100.00;63935.75;5108497;28;20191;-79
2022/09/05 06:17:38;;;;;;;6.57;5.90;;;;;;;18.77;100.00;63938.91;5106636;28;20262;-78
2022/09/05 06:20:30;;;;;;;5.68;5.10;;;;;;;18.86;100.00;63945.19;5095445;28;20237;-78
2022/09/05 06:23:23;;;;;;;5.78;4.90;;;;;;;18.81;100.00;63945.13;5093531;28;20192;-78
2022/09/05 06:26:32;;;;;;;5.22;4.85;;;;;;;18.68;100.00;63929.00;5086423;28;20232;-77
2022/09/05 06:29:07;;;;;;;4.80;3.60;;;;;;;18.72;98.48;63936.28;5098736;28;20244;-79
2022/09/05 06:31:50;;;;;;;4.53;4.22;;;;;;;18.35;99.88;63895.63;5106881;28;20218;-78
2022/09/05 06:34:34;;;;;;;4.63;4.05;;;;;;;18.50;100.00;63913.34;5106002;28;20188;-77
2022/09/05 06:37:10;;;;;;;6.00;5.50;;;;;;;18.44;100.00;63904.50;5106804;28;20437;-77
2022/09/05 06:40:00;;;;;;;4.28;3.97;;;;;;;18.73;100.00;63934.72;5106820;28;20202;-79
2022/09/05 06:42:36;;;;;;;5.00;4.68;;;;;;;19.18;98.58;63994.03;5106767;28;20215;-77
2022/09/05 06:45:31;;;;;;;3.75;3.55;;;;;;;19.52;94.20;64017.13;5107119;28;20250;-78
2022/09/05 06:48:09;;;;;;;3.17;3.05;;;;;;;19.73;90.21;64041.06;5072624;28;20204;-78
2022/09/05 06:50:52;;;;;;;3.88;3.65;;;;;;;19.53;87.23;64017.63;5097697;28;20203;-78
2022/09/05 06:53:47;;;;;;;3.88;3.58;;;;;;;19.24;89.00;63992.53;5106010;28;20229;-77
2022/09/05 06:56:25;;;;;;;4.15;3.85;;;;;;;19.09;90.39;63974.84;5106670;28;20226;-78
2022/09/05 06:59:33;;;;;;;6.30;4.30;;;;;;;19.18;91.31;63984.22;5108434;28;20460;-78
2022/09/05 07:02:07;;;;;;;5.18;4.78;;;;;;;19.54;92.74;64018.69;5091258;28;20214;-78
2022/09/05 07:04:37;;;;;;;4.68;4.15;;;;;;;19.98;89.20;64069.75;5107688;28;20282;-76
2022/09/05 07:07:14;;;;;;;4.63;4.32;;;;;;;20.30;86.17;64097.47;5108465;28;20376;-78
2022/09/05 07:09:59;;;;;;;3.95;3.70;;;;;;;20.21;84.06;64085.47;5107296;28;20235;-77
2022/09/05 07:12:32;;;;;;;4.38;4.07;;;;;;;20.23;86.87;64092.75;5097620;28;20279;-78
2022/09/05 07:15:08;;;;;;;4.50;4.20;;;;;;;20.23;86.83;64093.28;5087571;28;20196;-78
2022/09/05 07:17:42;;;;;;;3.92;3.72;;;;;;;20.10;81.24;64084.34;5102618;28;20249;-78
2022/09/05 07:20:20;;;;;;;5.10;4.65;;;;;;;20.08;84.30;64072.44;5103843;28;20200;-76
2022/09/05 07:22:56;;;;;;;6.18;3.67;;;;;;;20.33;81.69;64101.13;5111191;28;20211;-77
2022/09/05 07:25:28;;;;;;;4.57;4.28;;;;;;;20.35;80.16;64102.69;5110049;28;20585;-77
2022/09/05 07:27:58;;;;;;;4.57;4.22;;;;;;;20.02;84.42;64073.41;5098266;28;20279;-78
2022/09/05 07:30:26;;;;;;;3.70;3.40;;;;;;;19.80;84.89;64048.38;5107533;28;20484;-77
2022/09/05 07:32:54;;;;;;;4.60;4.18;;;;;;;19.61;86.63;64025.97;5108382;28;20211;-77
2022/09/05 07:35:28;;;;;;;4.18;3.88;;;;;;;19.62;88.71;64029.09;5107854;28;20199;-77
2022/09/05 07:38:04;;;;;;;4.13;3.88;;;;;;;19.60;88.86;64024.41;5110462;28;20417;-78
2022/09/05 07:40:36;;;;;;;5.00;4.38;;;;;;;19.71;88.93;64039.00;5109649;28;20215;-78
2022/09/05 07:43:06;;;;;;;4.50;4.10;;;;;;;19.73;87.36;64041.06;5105476;28;20184;-78
2022/09/05 07:45:37;;;;;;;3.97;3.78;;;;;;;19.79;88.19;64047.34;5087233;28;20536;-77
2022/09/05 07:48:12;;;;;;;3.72;3.53;;;;;;;19.88;86.38;64056.22;5089043;28;20195;-77
2022/09/05 07:50:52;;;;;;;5.65;3.63;;;;;;;20.18;85.19;64085.47;5091000;28;20195;-79
2022/09/05 07:53:21;;;;;;;3.83;3.63;;;;;;;20.32;82.60;64099.56;5087338;28;20180;-78
2022/09/05 07:55:52;;;;;;;4.70;3.53;;;;;;;20.30;80.49;64100.56;5091248;28;20223;-79
2022/09/05 07:58:21;;;;;;;3.17;3.08;;;;;;;20.04;80.85;64072.91;5087962;28;20238;-78
2022/09/05 08:00:53;;;;;;;4.40;4.00;;;;;;;20.37;80.95;64107.34;5087138;28;20192;-77
2022/09/05 08:03:26;;;;;;;3.35;3.15;;;;;;;20.39;77.13;64107.38;5104226;28;20184;-76
2022/09/05 08:05:56;;;;;;;3.33;2.97;;;;;;;20.21;79.27;64091.19;5086346;28;20235;-78
2022/09/05 08:08:28;;;;;;;2.55;2.45;;;;;;;20.26;76.15;64091.22;5090629;28;20200;-77
2022/09/05 08:10:57;;;;;;;3.08;2.88;;;;;;;20.12;77.35;64081.75;5087565;28;20220;-77
2022/09/05 08:13:29;;;;;;;3.35;3.13;;;;;;;20.28;78.07;64097.97;5086469;28;20188;-77
2022/09/05 08:15:59;;;;;;;5.22;3.58;;;;;;;20.34;75.59;64107.34;5087674;28;20279;-77
2022/09/05 08:18:37;;;;;;;2.90;2.70;;;;;;;19.94;78.05;64062.47;5087237;28;20200;-77
2022/09/05 08:21:10;;;;;;;2.97;2.78;;;;;;;20.25;77.21;64097.94;5104048;28;20222;-77
2022/09/05 08:23:54;;;;;;;2.63;2.42;;;;;;;19.99;75.78;64065.09;5105287;28;20211;-77
2022/09/05 08:26:35;;;;;;;2.70;2.60;;;;;;;20.07;74.98;64073.44;5105529;28;20238;-78
2022/09/05 08:29:09;;;;;;;2.60;2.40;;;;;;;20.29;73.83;64096.94;5105935;28;20367;-78
2022/09/05 08:31:41;;;;;;;2.75;2.65;;;;;;;20.68;70.80;64137.13;5107272;28;20219;-77
2022/09/05 08:34:12;;;;;;;2.80;2.65;;;;;;;21.08;68.04;64178.38;5107370;28;20196;-77
2022/09/05 08:36:44;;;;;;;4.20;2.67;;;;;;;21.67;68.38;64242.59;5106873;28;20546;-77
2022/09/05 08:39:16;;;;;;;2.50;2.40;;;;;;;22.01;61.26;64275.56;5105852;28;20199;-77
2022/09/05 08:41:58;;;;;;;2.85;2.70;;;;;;;22.42;59.32;64320.47;5108499;28;20230;-78
2022/09/05 08:44:34;;;;;;;2.25;2.15;;;;;;;22.24;57.41;64301.66;5105943;28;20503;-78
2022/09/05 08:47:10;;;;;;;2.38;2.28;;;;;;;22.08;60.07;64284.94;5107074;28;20226;-77
2022/09/05 08:50:05;;;;;;;2.45;2.35;;;;;;;21.95;54.38;64268.78;5108165;28;20247;-77
2022/09/05 08:52:46;;;;;;;3.05;2.75;;;;;;;21.62;59.79;64237.38;5106254;28;20578;-77
2022/09/05 08:55:24;;;;;;;3.30;2.78;;;;;;;21.20;62.32;64191.44;5105672;28;20199;-77
2022/09/05 08:58:08;;;;;;;3.15;2.53;;;;;;;20.83;65.15;64157.44;5088480;28;20219;-76
2022/09/05 09:00:43;;;;;;;2.47;2.38;;;;;;;20.32;66.84;64105.25;5089605;28;20195;-76
2022/09/05 09:03:21;;;;;;;2.60;2.50;;;;;;;20.42;66.22;64113.09;5089706;28;20188;-76
2022/09/05 09:06:14;;;;;;;3.22;3.00;;;;;;;20.36;66.22;64106.81;5089777;28;20239;-78
2022/09/05 09:08:54;;;;;;;3.30;3.05;;;;;;;20.57;65.16;64130.81;5110150;28;20198;-77
2022/09/05 12:56:48;;;;;;;3.00;2.90;;;;;;;25.78;41.21;64673.31;5090795;23;1284961;-76
2022/09/05 12:59:18;;;;;;;2.97;2.85;;;;;;;26.13;42.42;64707.94;5006419;28;20190;-75
2022/09/05 13:02:01;;;;;;;2.45;2.35;;;;;;;25.88;40.75;64684.31;5006073;28;20218;-77
2022/09/05 13:04:31;;;;;;;2.58;2.47;;;;;;;25.95;42.00;64691.66;4992231;28;20205;-76
2022/09/05 13:07:04;;;;;;;2.45;2.30;;;;;;;25.82;41.54;64672.81;5002248;28;20266;-77
2022/09/05 13:09:36;;;;;;;2.85;2.75;;;;;;;25.91;42.09;64681.72;4999504;28;20262;-75
2022/09/05 13:12:11;;;;;;;2.35;2.25;;;;;;;25.67;41.50;64659.16;5004382;28;20269;-75
2022/09/05 13:14:57;;;;;;;3.15;2.95;;;;;;;25.37;41.00;64625.13;4993012;28;20211;-75
2022/09/05 13:17:37;;;;;;;2.78;2.67;;;;;;;24.54;42.72;64544.41;4996046;28;20376;-75
2022/09/05 13:20:11;;;;;;;2.63;2.42;;;;;;;23.85;44.44;64472.69;4989208;28;20219;-76
2022/09/05 13:22:42;;;;;;;3.10;2.90;;;;;;;23.49;44.65;64431.88;5003798;28;20191;-77
2022/09/05 13:25:16;;;;;;;2.70;2.60;;;;;;;23.82;44.00;64463.81;5005976;28;20246;-74
2022/09/05 13:27:55;;;;;;;4.45;2.75;;;;;;;23.36;44.24;64418.28;5005256;28;20214;-76
2022/09/05 13:30:24;;;;;;;3.35;3.15;;;;;;;23.54;44.30;64440.25;4988726;28;20230;-75
2022/09/05 13:32:55;;;;;;;3.00;2.83;;;;;;;23.84;44.27;64463.84;4986091;28;20236;-77
2022/09/05 13:35:24;;;;;;;3.47;3.28;;;;;;;24.34;45.26;64517.75;5003246;28;20265;-74
2022/09/05 13:38:02;;;;;;;2.28;2.17;;;;;;;24.41;43.36;64525.59;4996779;28;20546;-77
2022/09/05 13:40:35;;;;;;;2.45;2.35;;;;;;;24.37;43.55;64524.00;5000387;28;20298;-76
2022/09/05 13:43:09;;;;;;;2.97;2.78;;;;;;;24.45;43.98;64531.88;5002463;28;20191;-76
2022/09/05 13:45:55;;;;;;;3.22;3.03;;;;;;;24.23;44.37;64509.34;4985644;28;20423;-75
2022/09/05 13:48:38;;;;;;;2.53;2.35;;;;;;;24.29;44.48;64517.72;4985381;28;20258;-76
2022/09/05 13:51:24;;;;;;;3.10;2.88;;;;;;;23.90;45.52;64477.41;4986459;28;20243;-75
2022/09/05 13:54:06;;;;;;;3.13;2.83;;;;;;;23.36;46.43;64415.69;4996099;28;20201;-76
2022/09/05 13:56:36;;;;;;;3.35;3.03;;;;;;;23.07;47.36;64391.06;5004861;28;20299;-75
2022/09/05 13:59:10;;;;;;;4.47;2.92;;;;;;;22.87;48.08;64370.13;5005099;28;20263;-79
2022/09/05 14:01:58;;;;;;;2.20;2.10;;;;;;;23.19;46.89;64400.50;5002270;28;20214;-78
2022/09/05 14:05:00;;;;;;;3.05;2.78;;;;;;;23.63;46.98;64447.06;4996708;28;20218;-77
2022/09/05 14:08:03;;;;;;;3.22;3.00;;;;;;;24.09;46.52;64492.09;4966698;28;20272;-76
2022/09/05 14:10:54;;;;;;;2.70;2.60;;;;;;;24.68;45.73;64559.06;4987328;28;20231;-79
2022/09/05 14:13:25;;;;;;;3.45;2.70;;;;;;;25.38;44.05;64628.78;4995092;28;20199;-79
2022/09/05 14:15:57;;;;;;;2.53;2.42;;;;;;;25.52;42.97;64640.84;5001238;28;20226;-77
2022/09/05 14:18:28;;;;;;;3.40;3.28;;;;;;;25.05;41.99;64594.72;4986090;28;20206;-79
2022/09/05 14:21:15;;;;;;;2.95;2.75;;;;;;;24.78;43.52;64566.97;4986344;28;20404;-78
2022/09/05 14:23:52;;;;;;;3.17;2.97;;;;;;;24.78;44.47;64566.44;5004144;28;20259;-78
2022/09/05 14:26:24;;;;;;;3.30;3.10;;;;;;;24.66;45.39;64551.25;5000519;28;20241;-76
2022/09/05 14:29:01;;;;;;;2.92;2.83;;;;;;;24.64;44.28;64551.75;4986323;28;20239;-77
2022/09/05 14:31:41;;;;;;;2.90;2.80;;;;;;;24.54;44.23;64544.41;4999466;28;20214;-79
2022/09/05 14:34:27;;;;;;;2.83;2.72;;;;;;;24.41;45.15;64530.81;5001730;28;20210;-77
2022/09/05 14:37:03;;;;;;;3.03;2.92;;;;;;;24.43;43.83;64525.09;4989788;28;20195;-78
2022/09/05 14:40:06;;;;;;;3.00;2.85;;;;;;;24.31;46.95;64515.13;4997050;28;20210;-76
2022/09/05 14:42:47;;;;;;;3.10;2.92;;;;;;;24.70;45.10;64561.19;5003877;28;20199;-78
2022/09/05 14:45:44;;;;;;;3.47;3.25;;;;;;;25.19;43.97;64603.66;4998671;28;20218;-78
2022/09/05 14:48:30;;;;;;;3.15;2.95;;;;;;;25.73;42.46;64665.97;5001291;28;20290;-79
2022/09/05 14:51:22;;;;;;;3.33;3.13;;;;;;;25.86;41.72;64677.00;5005051;28;20367;-78
2022/09/05 14:53:56;;;;;;;2.92;2.75;;;;;;;25.87;40.42;64683.25;4994182;28;20209;-76
2022/09/05 14:56:28;;;;;;;2.40;2.20;;;;;;;25.75;42.79;64670.16;4986633;28;20222;-77
2022/09/05 14:59:09;;;;;;;2.92;2.45;;;;;;;26.25;43.52;64719.97;4986134;28;20215;-79
2022/09/05 15:01:49;;;;;;;2.53;2.42;;;;;;;26.20;42.56;64710.03;4990317;28;20285;-77
2022/09/05 15:04:19;;;;;;;2.47;2.38;;;;;;;25.77;42.79;64667.03;5005157;28;20237;-76
2022/09/05 15:07:00;;;;;;;3.38;3.08;;;;;;;24.99;43.95;64588.44;4987713;28;20218;-78
2022/09/05 15:09:27;;;;;;;3.05;2.80;;;;;;;24.70;44.31;64561.19;4984602;28;20231;-76
2022/09/05 15:11:57;;;;;;;2.17;2.08;;;;;;;24.12;46.04;64497.31;4984703;28;20209;-77
2022/09/05 15:14:28;;;;;;;2.70;2.60;;;;;;;23.96;45.81;64481.06;4984947;28;20248;-76
2022/09/05 15:17:00;;;;;;;2.20;2.10;;;;;;;23.72;46.11;64456.50;4993496;28;20455;-79
2022/09/05 15:19:50;;;;;;;2.85;2.35;;;;;;;23.38;46.92;64418.31;5004072;28;20514;-77
2022/09/05 15:22:24;;;;;;;2.40;2.20;;;;;;;23.31;47.30;64413.59;4985951;28;20199;-78
2022/09/05 15:25:13;;;;;;;2.25;2.15;;;;;;;22.96;51.12;64374.38;4985145;28;20234;-77
2022/09/05 15:27:40;;;;;;;2.70;2.58;;;;;;;22.99;51.19;64377.00;4986177;28;20223;-77
2022/09/05 15:30:14;;;;;;;3.00;2.80;;;;;;;22.96;51.23;64376.44;4989106;28;20223;-77
2022/09/05 15:32:42;;;;;;;2.55;2.45;;;;;;;23.03;50.84;64378.56;4986650;28;20199;-77
2022/09/05 15:35:17;;;;;;;3.00;2.83;;;;;;;22.95;53.53;64375.91;4998966;28;20281;-78
2022/09/05 15:37:44;;;;;;;3.17;2.28;;;;;;;22.88;54.21;64366.50;4989169;28;20507;-78
2022/09/05 15:40:14;;;;;;;2.70;2.50;;;;;;;22.88;55.52;64368.59;4999698;28;20219;-77
2022/09/05 15:42:44;;;;;;;2.47;2.28;;;;;;;22.94;55.01;64377.47;5007173;28;20194;-78
2022/09/05 15:45:14;;;;;;;2.85;2.55;;;;;;;22.77;54.53;64352.44;5000024;28;20400;-75
2022/09/05 15:47:46;;;;;;;5.82;2.33;;;;;;;22.22;53.46;64294.38;4991416;28;20263;-78
2022/09/05 15:50:19;;;;;;;3.15;2.38;;;;;;;21.98;53.67;64269.84;5002060;28;20442;-78
2022/09/05 15:52:50;;;;;;;2.35;2.15;;;;;;;21.82;55.16;64257.75;4988445;28;20200;-78
2022/09/05 15:55:20;;;;;;;2.20;2.10;;;;;;;21.72;55.71;64242.66;5007068;28;20266;-78
2022/09/05 15:57:51;;;;;;;3.05;2.85;;;;;;;21.36;57.26;64207.63;5000929;28;20261;-77
2022/09/05 16:00:39;;;;;;;2.85;2.53;;;;;;;21.15;58.52;64188.28;4993882;28;20220;-77
2022/09/05 16:03:13;;;;;;;2.88;2.67;;;;;;;21.25;58.04;64198.72;4997978;28;20199;-75
2022/09/05 16:05:56;;;;;;;3.88;2.40;;;;;;;21.40;58.37;64212.31;4997652;28;20231;-75
2022/09/05 16:08:27;;;;;;;2.40;2.20;;;;;;;21.59;57.04;64231.66;4995444;28;20278;-77